NZAA/AKL METAR and TAF weather

Enter ICAO airport designator
Station Type Date Time Source
NZAA METAR 2021/05/12 00:30 UTC NOAA

NZAA 120030Z AUTO 22006KT 9999 SCT045/// BKN085/// 19/16 Q1020 NOSIG


Station Type Date Time Source
NZAA Decoded METAR 2021/05/12 00:30 UTC NOAA

Auckland Airport, New Zealand (NZAA) 37-01S 174-48E 6M
May 11, 2021 - 08:30 PM EDT / 2021.05.12 0030 UTC
Wind: from the SW (220 degrees) at 7 MPH (6 KT):0
Visibility: greater than 7 mile(s):0
Sky conditions: mostly cloudy
Temperature: 66 F (19 C)
Dew Point: 60 F (16 C)
Relative Humidity: 82%
Pressure (altimeter): 30.12 in. Hg (1020 hPa)
ob: NZAA 120030Z AUTO 22006KT 9999 SCT045/// BKN085/// 19/16 Q1020 NOSIG
cycle: 0

Station Type Date Time Source
NZAA TAF 2021/05/11 18:11 UTC NOAA

TAF NZAA 111708Z 1118/1218 24010KT 9999 -SHRA SCT020 SCT030
TEMPO 1120/1200 6000 SHRA
BECMG 1210/1212 13005KT
TEMPO 1213/1218 6000 SHRA BKN012

Example: see airport list